createdAt,value
2022-07-28T00:00:24.887Z,16.95
2022-07-28T00:01:25.063Z,16.95
2022-07-28T00:02:24.953Z,16.91
2022-07-28T00:03:24.911Z,16.91
2022-07-28T00:04:24.898Z,16.92
2022-07-28T00:05:24.884Z,16.95
2022-07-28T00:06:24.806Z,16.98
2022-07-28T00:07:24.802Z,16.96
2022-07-28T00:08:24.799Z,16.95
2022-07-28T00:09:24.773Z,16.99
2022-07-28T00:10:24.743Z,17.02
2022-07-28T00:11:24.770Z,17.00
2022-07-28T00:12:24.725Z,17.00
2022-07-28T00:13:24.726Z,17.00
2022-07-28T00:14:24.704Z,17.00
2022-07-28T00:15:24.697Z,17.00
2022-07-28T00:16:24.726Z,16.92
2022-07-28T00:17:24.676Z,16.88
2022-07-28T00:18:24.651Z,16.85
2022-07-28T00:19:24.639Z,16.85
2022-07-28T00:20:24.627Z,16.87
2022-07-28T00:21:24.635Z,16.84
2022-07-28T00:22:24.607Z,16.84
2022-07-28T00:23:24.586Z,16.87
2022-07-28T00:24:25.578Z,16.88
2022-07-28T00:25:24.553Z,16.90
2022-07-28T00:26:24.534Z,16.90
2022-07-28T00:27:24.522Z,16.95
2022-07-28T00:28:24.535Z,16.95
2022-07-28T00:29:24.512Z,16.90
2022-07-28T00:30:25.519Z,16.90
2022-07-28T00:31:24.522Z,16.88
2022-07-28T00:32:24.453Z,16.90
2022-07-28T00:33:24.459Z,16.87
2022-07-28T00:34:26.593Z,16.88
2022-07-28T00:35:30.419Z,16.91
2022-07-28T00:36:25.428Z,16.91
2022-07-28T00:37:24.399Z,16.95
2022-07-28T00:38:24.391Z,16.95
2022-07-28T00:39:24.383Z,16.95
2022-07-28T00:40:24.366Z,16.96
2022-07-28T00:41:24.375Z,16.99
2022-07-28T00:42:24.345Z,16.98
2022-07-28T00:43:24.338Z,16.99
2022-07-28T00:44:24.301Z,17.00
2022-07-28T00:45:24.294Z,17.02
2022-07-28T00:46:24.342Z,16.99
2022-07-28T00:47:24.283Z,16.99
2022-07-28T00:48:24.261Z,17.00
2022-07-28T00:49:24.287Z,16.96
2022-07-28T00:50:24.245Z,16.98
2022-07-28T00:51:24.212Z,16.92
2022-07-28T00:52:24.215Z,16.92
2022-07-28T00:53:24.201Z,16.95
2022-07-28T00:54:24.182Z,16.91
2022-07-28T00:55:24.195Z,16.88
2022-07-28T00:56:24.141Z,16.88
2022-07-28T00:57:24.149Z,16.90
2022-07-28T00:58:24.143Z,16.91
2022-07-28T00:59:24.110Z,16.91
2022-07-28T01:00:24.112Z,16.95
2022-07-28T01:01:24.164Z,16.95
2022-07-28T01:02:24.205Z,16.95
2022-07-28T01:03:24.084Z,16.95
2022-07-28T01:04:24.064Z,16.92
2022-07-28T01:05:44.069Z,16.92
2022-07-28T01:06:25.053Z,16.88
2022-07-28T01:07:24.023Z,16.88
2022-07-28T01:08:24.014Z,16.87
2022-07-28T01:09:23.994Z,16.84
2022-07-28T01:10:23.985Z,16.85
2022-07-28T01:11:23.984Z,16.84
2022-07-28T01:12:23.941Z,16.85
2022-07-28T01:13:23.994Z,16.81
2022-07-28T01:14:23.925Z,16.80
2022-07-28T01:15:23.912Z,16.75
2022-07-28T01:16:24.277Z,16.72
2022-07-28T01:17:23.872Z,16.69
2022-07-28T01:18:23.913Z,16.72
2022-07-28T01:19:23.961Z,16.73
2022-07-28T01:20:23.843Z,16.72
2022-07-28T01:21:23.852Z,16.66
2022-07-28T01:22:23.822Z,16.65
2022-07-28T01:23:23.813Z,16.65
2022-07-28T01:24:23.795Z,16.67
2022-07-28T01:25:23.825Z,16.70
2022-07-28T01:26:23.773Z,16.67
2022-07-28T01:27:23.773Z,16.66
2022-07-28T01:28:23.783Z,16.66
2022-07-28T01:29:23.738Z,16.67
2022-07-28T01:30:27.624Z,16.66
2022-07-28T01:31:23.903Z,16.65
2022-07-28T01:32:23.699Z,16.63
2022-07-28T01:33:23.699Z,16.62
2022-07-28T01:34:23.692Z,16.62
2022-07-28T01:35:23.660Z,16.62
2022-07-28T01:36:23.651Z,16.63
2022-07-28T01:37:23.609Z,16.63
2022-07-28T01:38:23.634Z,16.65
2022-07-28T01:39:23.610Z,16.65
2022-07-28T01:40:23.608Z,16.63
2022-07-28T01:41:23.578Z,16.66
2022-07-28T01:42:23.556Z,16.69
2022-07-28T01:43:23.612Z,16.69
2022-07-28T01:44:25.204Z,16.70
2022-07-28T01:45:23.533Z,16.70
2022-07-28T01:46:23.579Z,16.70
2022-07-28T01:47:23.500Z,16.70
2022-07-28T01:48:23.482Z,16.70
2022-07-28T01:49:23.557Z,16.72
2022-07-28T01:50:23.445Z,16.73
2022-07-28T01:51:23.447Z,16.73
2022-07-28T01:52:23.444Z,16.73
2022-07-28T01:53:23.420Z,16.77
2022-07-28T01:54:23.411Z,16.77
2022-07-28T01:55:23.400Z,16.80
2022-07-28T01:56:23.390Z,16.81
2022-07-28T01:57:23.367Z,16.81
2022-07-28T01:58:23.339Z,16.80
2022-07-28T01:59:23.392Z,16.80
2022-07-28T02:00:23.330Z,16.80
2022-07-28T02:01:23.370Z,16.81
2022-07-28T02:02:23.290Z,16.82
2022-07-28T02:03:23.289Z,16.81
2022-07-28T02:04:23.285Z,16.80
2022-07-28T02:05:23.301Z,16.80
2022-07-28T02:06:23.246Z,16.77
2022-07-28T02:07:23.259Z,16.77
2022-07-28T02:08:23.212Z,16.78
2022-07-28T02:09:23.219Z,16.72
2022-07-28T02:10:23.186Z,16.66
2022-07-28T02:11:23.179Z,16.65
2022-07-28T02:12:23.147Z,16.65
2022-07-28T02:13:23.181Z,16.65
2022-07-28T02:14:23.149Z,16.63
2022-07-28T02:15:23.116Z,16.63
2022-07-28T02:16:23.148Z,16.63
2022-07-28T02:17:23.468Z,16.66
2022-07-28T02:18:23.085Z,16.65
2022-07-28T02:19:23.098Z,16.63
2022-07-28T02:20:23.587Z,16.65
2022-07-28T02:21:23.060Z,16.66
2022-07-28T02:22:23.049Z,16.69
2022-07-28T02:23:23.033Z,16.70
2022-07-28T02:24:23.041Z,16.67
2022-07-28T02:25:23.027Z,16.66
2022-07-28T02:26:22.986Z,16.67
2022-07-28T02:27:22.963Z,16.63
2022-07-28T02:28:22.945Z,16.65
2022-07-28T02:29:49.245Z,16.63
2022-07-28T02:30:23.936Z,16.60
2022-07-28T02:31:22.999Z,16.59
2022-07-28T02:32:27.061Z,16.57
2022-07-28T02:33:57.970Z,16.57
2022-07-28T02:34:27.776Z,16.57
2022-07-28T02:35:22.860Z,16.57
2022-07-28T02:36:22.834Z,16.57
2022-07-28T02:37:22.847Z,16.54
2022-07-28T02:38:22.814Z,16.51
2022-07-28T02:39:22.824Z,16.50
2022-07-28T02:40:22.805Z,16.48
2022-07-28T02:41:22.775Z,16.47
2022-07-28T02:42:22.766Z,16.42
2022-07-28T02:43:22.753Z,16.44
2022-07-28T02:44:22.766Z,16.44
2022-07-28T02:45:22.742Z,16.48
2022-07-28T02:46:22.774Z,16.47
2022-07-28T02:47:22.717Z,16.45
2022-07-28T02:48:22.690Z,16.41
2022-07-28T02:49:22.734Z,16.36
2022-07-28T02:50:22.664Z,16.34
2022-07-28T02:51:22.649Z,16.36
2022-07-28T02:52:22.635Z,16.34
2022-07-28T02:53:22.635Z,16.34
2022-07-28T02:54:22.625Z,16.33
2022-07-28T02:55:22.593Z,16.32
2022-07-28T02:56:22.597Z,16.30
2022-07-28T02:57:22.565Z,16.30
2022-07-28T02:58:23.581Z,16.32
2022-07-28T02:59:22.561Z,16.30
2022-07-28T03:00:22.532Z,16.29
2022-07-28T03:01:22.565Z,16.27
2022-07-28T03:02:22.516Z,16.26
2022-07-28T03:03:22.492Z,16.22
2022-07-28T03:04:22.474Z,16.16
2022-07-28T03:05:22.573Z,16.13
2022-07-28T03:06:28.629Z,16.08
2022-07-28T03:07:23.446Z,16.07
2022-07-28T03:08:22.423Z,16.03
2022-07-28T03:09:22.415Z,15.98
2022-07-28T03:10:34.267Z,15.95
2022-07-28T03:11:23.395Z,15.92
2022-07-28T03:12:22.391Z,15.89
2022-07-28T03:13:22.375Z,15.85
2022-07-28T03:14:22.364Z,15.81
2022-07-28T03:15:22.349Z,15.80
2022-07-28T03:16:22.930Z,15.76
2022-07-28T03:17:22.480Z,15.76
2022-07-28T03:18:22.300Z,15.76
2022-07-28T03:19:22.281Z,15.74
2022-07-28T03:20:22.297Z,15.73
2022-07-28T03:21:22.287Z,15.71
2022-07-28T03:22:22.249Z,15.73
2022-07-28T03:23:22.243Z,15.71
2022-07-28T03:24:22.218Z,15.71
2022-07-28T03:25:22.220Z,15.71
2022-07-28T03:26:22.200Z,15.70
2022-07-28T03:27:22.192Z,15.67
2022-07-28T03:28:22.182Z,15.64
2022-07-28T03:29:22.272Z,15.66
2022-07-28T03:30:22.156Z,15.64
2022-07-28T03:31:22.194Z,15.62
2022-07-28T03:32:23.018Z,15.59
2022-07-28T03:33:22.133Z,15.56
2022-07-28T03:34:22.089Z,15.56
2022-07-28T03:35:22.089Z,15.56
2022-07-28T03:36:22.263Z,15.55
2022-07-28T03:37:22.408Z,15.55
2022-07-28T03:38:22.054Z,15.55
2022-07-28T03:39:22.021Z,15.53
2022-07-28T03:40:22.072Z,15.52
2022-07-28T03:41:22.077Z,15.49
2022-07-28T03:42:22.174Z,15.46
2022-07-28T03:43:22.968Z,15.49
2022-07-28T03:44:27.873Z,15.46
2022-07-28T03:45:22.971Z,15.44
2022-07-28T03:46:22.386Z,15.44
2022-07-28T03:47:22.066Z,15.43
2022-07-28T03:48:21.957Z,15.40
2022-07-28T03:49:22.099Z,15.40
2022-07-28T03:50:22.100Z,15.41
2022-07-28T03:51:21.930Z,15.40
2022-07-28T03:52:21.942Z,15.38
2022-07-28T03:53:21.870Z,15.35
2022-07-28T03:54:21.938Z,15.34
2022-07-28T03:55:21.822Z,15.31
2022-07-28T03:56:21.817Z,15.31
2022-07-28T03:57:21.809Z,15.30
2022-07-28T03:58:21.799Z,15.33
2022-07-28T03:59:21.771Z,15.33
2022-07-28T04:00:21.787Z,15.30
2022-07-28T04:01:21.844Z,15.25
2022-07-28T04:02:21.810Z,15.23
2022-07-28T04:03:36.515Z,15.25
2022-07-28T04:04:22.768Z,15.27
2022-07-28T04:05:21.892Z,15.30
2022-07-28T04:06:21.754Z,15.27
2022-07-28T04:07:21.807Z,15.23
2022-07-28T04:08:21.760Z,15.25
2022-07-28T04:09:21.760Z,15.28
2022-07-28T04:10:21.750Z,15.31
2022-07-28T04:11:21.667Z,15.31
2022-07-28T04:12:21.763Z,15.33
2022-07-28T04:13:21.720Z,15.34
2022-07-28T04:14:22.188Z,15.31
2022-07-28T04:15:21.643Z,15.28
2022-07-28T04:16:22.328Z,15.27
2022-07-28T04:17:21.579Z,15.23
2022-07-28T04:18:21.580Z,15.22
2022-07-28T04:19:21.550Z,15.22
2022-07-28T04:20:21.512Z,15.23
2022-07-28T04:21:21.485Z,15.25
2022-07-28T04:22:21.569Z,15.22
2022-07-28T04:23:21.731Z,15.22
2022-07-28T04:24:21.540Z,15.22
2022-07-28T04:25:21.542Z,15.23
2022-07-28T04:26:21.450Z,15.25
2022-07-28T04:27:21.415Z,15.25
2022-07-28T04:28:21.404Z,15.23
2022-07-28T04:29:23.435Z,15.23
2022-07-28T04:30:22.505Z,15.20
2022-07-28T04:31:21.388Z,15.18
2022-07-28T04:32:21.368Z,15.15
2022-07-28T04:33:21.369Z,15.15
2022-07-28T04:34:22.092Z,15.16
2022-07-28T04:35:21.379Z,15.15
2022-07-28T04:36:21.396Z,15.16
2022-07-28T04:37:21.402Z,15.15
2022-07-28T04:38:21.353Z,15.18
2022-07-28T04:39:21.432Z,15.16
2022-07-28T04:40:21.428Z,15.18
2022-07-28T04:41:21.344Z,15.18
2022-07-28T04:42:21.521Z,15.18
2022-07-28T04:43:23.153Z,15.20
2022-07-28T04:44:21.312Z,15.23
2022-07-28T04:45:21.331Z,15.28
2022-07-28T04:46:21.493Z,15.28
2022-07-28T04:47:21.346Z,15.30
2022-07-28T04:48:21.404Z,15.33
2022-07-28T04:49:21.196Z,15.35
2022-07-28T04:50:21.261Z,15.35
2022-07-28T04:51:21.123Z,15.35
2022-07-28T04:52:21.107Z,15.38
2022-07-28T04:53:21.103Z,15.38
2022-07-28T04:54:26.363Z,15.40
2022-07-28T04:55:22.068Z,15.41
2022-07-28T04:56:21.033Z,15.44
2022-07-28T04:57:21.036Z,15.44
2022-07-28T04:58:21.177Z,15.43
2022-07-28T05:00:12.107Z,15.48
2022-07-28T05:01:12.153Z,15.46
2022-07-28T05:02:14.795Z,15.48
2022-07-28T05:03:13.745Z,15.48
2022-07-28T05:04:12.371Z,15.49
2022-07-28T05:05:12.111Z,15.48
2022-07-28T05:06:12.013Z,15.48
2022-07-28T05:07:12.890Z,15.49
2022-07-28T05:08:11.994Z,15.51
2022-07-28T05:09:11.986Z,15.51
2022-07-28T05:10:11.991Z,15.51
2022-07-28T05:11:11.957Z,15.52
2022-07-28T05:12:11.933Z,15.55
2022-07-28T05:13:11.946Z,15.58
2022-07-28T05:14:12.596Z,15.56
2022-07-28T05:15:11.908Z,15.58
2022-07-28T05:16:11.911Z,15.59
2022-07-28T05:17:11.871Z,15.64
2022-07-28T05:18:11.912Z,15.66
2022-07-28T05:19:11.865Z,15.66
2022-07-28T05:20:11.833Z,15.68
2022-07-28T05:21:11.825Z,15.70
2022-07-28T05:22:11.829Z,15.73
2022-07-28T05:23:11.826Z,15.76
2022-07-28T05:24:12.158Z,15.78
2022-07-28T05:25:11.776Z,15.81
2022-07-28T05:26:11.773Z,15.88
2022-07-28T05:27:11.752Z,15.92
2022-07-28T05:28:11.763Z,15.96
2022-07-28T05:29:11.727Z,15.99
2022-07-28T05:30:11.693Z,16.03
2022-07-28T05:31:11.714Z,16.06
2022-07-28T05:32:17.075Z,16.10
2022-07-28T05:33:12.714Z,16.14
2022-07-28T05:34:11.977Z,16.18
2022-07-28T05:35:11.650Z,16.25
2022-07-28T05:36:11.644Z,16.26
2022-07-28T05:37:11.625Z,16.27
2022-07-28T05:38:11.614Z,16.30
2022-07-28T05:39:11.625Z,16.32
2022-07-28T05:40:11.569Z,16.34
2022-07-28T05:41:11.551Z,16.36
2022-07-28T05:42:11.565Z,16.41
2022-07-28T05:43:11.553Z,16.42
2022-07-28T05:44:11.852Z,16.47
2022-07-28T05:45:16.543Z,16.51
2022-07-28T05:46:12.585Z,16.52
2022-07-28T05:47:11.470Z,16.54
2022-07-28T05:48:11.477Z,16.55
2022-07-28T05:49:11.527Z,16.59
2022-07-28T05:50:11.456Z,16.62
2022-07-28T05:51:11.442Z,16.62
2022-07-28T05:52:11.432Z,16.66
2022-07-28T05:53:11.437Z,16.65
2022-07-28T05:54:11.808Z,16.66
2022-07-28T05:55:11.382Z,16.67
2022-07-28T05:56:11.383Z,16.70
2022-07-28T05:57:11.350Z,16.69
2022-07-28T05:58:11.352Z,16.67
2022-07-28T05:59:11.346Z,16.69
2022-07-28T06:00:11.318Z,16.72
2022-07-28T06:01:11.317Z,16.73
2022-07-28T06:02:11.305Z,16.73
2022-07-28T06:03:11.272Z,16.75
2022-07-28T06:04:26.780Z,16.80
2022-07-28T06:05:12.268Z,16.80
2022-07-28T06:06:16.180Z,16.81
2022-07-28T06:07:12.243Z,16.73
2022-07-28T06:08:11.205Z,16.65
2022-07-28T06:09:11.224Z,16.60
2022-07-28T06:10:11.186Z,16.63
2022-07-28T06:11:11.170Z,16.65
2022-07-28T06:12:11.171Z,16.62
2022-07-28T06:13:11.157Z,16.62
2022-07-28T06:14:11.448Z,16.63
2022-07-28T06:15:11.107Z,16.62
2022-07-28T06:16:13.271Z,16.63
2022-07-28T06:17:11.084Z,16.63
2022-07-28T06:18:11.078Z,16.60
2022-07-28T06:19:11.068Z,16.51
2022-07-28T06:20:11.075Z,16.52
2022-07-28T06:21:11.079Z,16.57
2022-07-28T06:22:11.018Z,16.63
2022-07-28T06:23:11.021Z,16.67
2022-07-28T06:24:11.241Z,16.67
2022-07-28T06:25:10.998Z,16.75
2022-07-28T06:26:10.988Z,16.82
2022-07-28T06:27:10.980Z,16.90
2022-07-28T06:28:10.964Z,16.90
2022-07-28T06:29:10.959Z,16.90
2022-07-28T06:30:10.929Z,16.91
2022-07-28T06:31:10.956Z,16.92
2022-07-28T06:32:10.971Z,16.92
2022-07-28T06:33:16.754Z,16.96
2022-07-28T06:34:12.288Z,16.92
2022-07-28T06:35:10.861Z,16.96
2022-07-28T06:36:10.857Z,16.98
2022-07-28T06:37:10.826Z,16.99
2022-07-28T06:38:10.806Z,17.03
2022-07-28T06:39:10.827Z,17.06
2022-07-28T06:40:10.797Z,17.07
2022-07-28T06:41:10.790Z,17.12
2022-07-28T06:42:10.757Z,17.14
2022-07-28T06:43:10.791Z,17.18
2022-07-28T06:44:12.414Z,17.24
2022-07-28T06:45:19.565Z,17.28
2022-07-28T06:46:11.720Z,17.38
2022-07-28T06:47:10.737Z,17.46
2022-07-28T06:48:10.690Z,17.54
2022-07-28T06:49:10.857Z,17.60
2022-07-28T06:50:25.847Z,17.63
2022-07-28T06:51:11.634Z,17.68
2022-07-28T06:52:10.629Z,17.77
2022-07-28T06:53:10.605Z,17.92
2022-07-28T06:54:11.607Z,17.99
2022-07-28T06:55:10.658Z,18.05
2022-07-28T06:56:13.782Z,18.11
2022-07-28T06:57:11.555Z,18.16
2022-07-28T06:58:10.543Z,18.20
2022-07-28T06:59:10.744Z,18.28
2022-07-28T07:00:10.531Z,18.32
2022-07-28T07:01:10.566Z,18.28
2022-07-28T07:02:10.495Z,18.20
2022-07-28T07:03:10.529Z,18.05
2022-07-28T07:04:10.577Z,17.96
2022-07-28T07:05:10.459Z,17.96
2022-07-28T07:06:10.474Z,17.96
2022-07-28T07:07:14.998Z,17.98
2022-07-28T07:08:11.405Z,18.02
2022-07-28T07:09:10.395Z,18.11
2022-07-28T07:10:10.419Z,18.25
2022-07-28T07:11:10.388Z,18.34
2022-07-28T07:12:10.366Z,18.46
2022-07-28T07:13:10.344Z,18.47
2022-07-28T07:14:10.334Z,18.46
2022-07-28T07:15:10.350Z,18.50
2022-07-28T07:16:10.397Z,18.34
2022-07-28T07:17:10.307Z,18.28
2022-07-28T07:18:10.304Z,18.35
2022-07-28T07:19:15.459Z,18.32
2022-07-28T07:20:11.253Z,18.39
2022-07-28T07:21:10.232Z,18.32
2022-07-28T07:22:10.245Z,18.28
2022-07-28T07:23:10.207Z,18.35
2022-07-28T07:24:10.201Z,18.42
2022-07-28T07:25:10.201Z,18.49
2022-07-28T07:26:10.185Z,18.57
2022-07-28T07:27:10.176Z,18.50
2022-07-28T07:28:10.157Z,18.54
2022-07-28T07:29:10.124Z,18.64
2022-07-28T07:30:10.139Z,18.75
2022-07-28T07:31:10.141Z,18.87
2022-07-28T07:32:11.039Z,18.94
2022-07-28T07:33:10.555Z,18.96
2022-07-28T07:34:10.074Z,18.89
2022-07-28T07:35:10.075Z,18.90
2022-07-28T07:36:10.055Z,18.91
2022-07-28T07:37:10.035Z,18.94
2022-07-28T07:38:10.014Z,18.97
2022-07-28T07:39:10.005Z,18.93
2022-07-28T07:40:10.035Z,18.94
2022-07-28T07:41:09.990Z,19.01
2022-07-28T07:42:09.972Z,19.09
2022-07-28T07:43:09.968Z,19.15
2022-07-28T07:44:09.956Z,19.21
2022-07-28T07:45:09.947Z,19.27
2022-07-28T07:46:09.969Z,19.34
2022-07-28T07:47:09.904Z,19.40
2022-07-28T07:48:09.889Z,19.47
2022-07-28T07:49:10.056Z,19.52
2022-07-28T07:50:09.884Z,19.58
2022-07-28T07:51:15.356Z,19.64
2022-07-28T07:52:10.837Z,19.67
2022-07-28T07:53:09.810Z,19.65
2022-07-28T07:54:09.985Z,19.64
2022-07-28T07:55:09.800Z,19.65
2022-07-28T07:56:09.794Z,19.62
2022-07-28T07:57:09.773Z,19.58
2022-07-28T07:58:09.769Z,19.52
2022-07-28T07:59:09.756Z,19.47
2022-07-28T08:00:28.646Z,19.49
2022-07-28T08:01:10.725Z,19.49
2022-07-28T08:02:09.887Z,19.46
2022-07-28T08:03:11.431Z,19.46
2022-07-28T08:04:09.708Z,19.53
2022-07-28T08:05:09.738Z,19.58
2022-07-28T08:06:09.673Z,19.58
2022-07-28T08:07:09.646Z,19.65
2022-07-28T08:08:09.638Z,19.76
2022-07-28T08:09:09.610Z,19.80
2022-07-28T08:10:09.609Z,19.89
2022-07-28T08:11:09.588Z,20.01
2022-07-28T08:12:09.579Z,20.08
2022-07-28T08:13:09.559Z,20.17
2022-07-28T08:14:09.550Z,20.17
2022-07-28T08:15:09.575Z,20.16
2022-07-28T08:16:09.622Z,20.12
2022-07-28T08:17:09.512Z,20.12
2022-07-28T08:18:09.498Z,20.15
2022-07-28T08:19:09.500Z,20.17
2022-07-28T08:20:09.493Z,20.20
2022-07-28T08:21:09.455Z,20.22
2022-07-28T08:22:09.465Z,20.31
2022-07-28T08:23:09.439Z,20.26
2022-07-28T08:24:09.418Z,20.26
2022-07-28T08:25:09.419Z,20.26
2022-07-28T08:26:09.420Z,20.25
2022-07-28T08:27:09.393Z,20.31
2022-07-28T08:28:09.388Z,20.37
2022-07-28T08:29:09.361Z,20.41
2022-07-28T08:30:09.401Z,20.50
2022-07-28T08:31:09.399Z,20.54
2022-07-28T08:32:09.341Z,20.60
2022-07-28T08:33:09.340Z,20.57
2022-07-28T08:34:26.398Z,20.60
2022-07-28T08:35:32.486Z,20.63
2022-07-28T08:36:10.267Z,20.69
2022-07-28T08:37:09.261Z,20.75
2022-07-28T08:38:09.259Z,20.78
2022-07-28T08:39:09.239Z,20.82
2022-07-28T08:40:09.225Z,20.93
2022-07-28T08:41:09.209Z,20.94
2022-07-28T08:42:09.203Z,20.94
2022-07-28T08:43:09.183Z,21.01
2022-07-28T08:44:09.173Z,21.08
2022-07-28T08:45:09.160Z,21.11
2022-07-28T08:46:09.172Z,21.13
2022-07-28T08:47:09.119Z,21.16
2022-07-28T08:48:09.914Z,21.13
2022-07-28T08:49:09.158Z,21.08
2022-07-28T08:50:09.117Z,21.09
2022-07-28T08:51:09.091Z,21.09
2022-07-28T08:52:09.076Z,21.05
2022-07-28T08:53:09.053Z,21.00
2022-07-28T08:54:09.040Z,21.03
2022-07-28T08:55:09.039Z,21.11
2022-07-28T08:56:09.021Z,21.16
2022-07-28T08:57:08.978Z,21.22
2022-07-28T08:58:08.979Z,21.27
2022-07-28T08:59:08.979Z,21.33
2022-07-28T09:00:08.981Z,21.38
2022-07-28T09:01:08.959Z,21.43
2022-07-28T09:02:09.062Z,21.46
2022-07-28T09:03:09.033Z,21.48
2022-07-28T09:04:08.938Z,21.48
2022-07-28T09:05:08.905Z,21.45
2022-07-28T09:06:08.899Z,21.48
2022-07-28T09:07:08.876Z,21.55
2022-07-28T09:08:08.856Z,21.55
2022-07-28T09:09:08.856Z,21.61
2022-07-28T09:10:08.846Z,21.67
2022-07-28T09:11:08.857Z,21.71
2022-07-28T09:12:08.817Z,21.79
2022-07-28T09:13:08.788Z,21.90
2022-07-28T09:14:08.777Z,21.93
2022-07-28T09:15:08.783Z,21.91
2022-07-28T09:16:08.801Z,21.81
2022-07-28T09:17:08.724Z,21.70
2022-07-28T09:18:08.737Z,21.63
2022-07-28T09:19:08.718Z,21.68
2022-07-28T09:20:11.091Z,21.77
2022-07-28T09:21:08.709Z,21.83
2022-07-28T09:22:08.655Z,21.89
2022-07-28T09:23:42.755Z,21.79
2022-07-28T09:24:09.653Z,21.77
2022-07-28T09:25:08.647Z,21.86
2022-07-28T09:26:11.433Z,21.91
2022-07-28T09:27:08.630Z,21.94
2022-07-28T09:28:08.596Z,21.99
2022-07-28T09:29:08.588Z,22.05
2022-07-28T09:30:08.577Z,22.11
2022-07-28T09:31:08.582Z,22.11
2022-07-28T09:32:08.612Z,22.14
2022-07-28T09:33:08.514Z,22.14
2022-07-28T09:34:08.525Z,22.06
2022-07-28T09:35:08.592Z,22.11
2022-07-28T09:36:08.483Z,22.20
2022-07-28T09:37:08.488Z,22.26
2022-07-28T09:38:08.457Z,22.33
2022-07-28T09:39:08.465Z,22.35
2022-07-28T09:40:10.583Z,22.36
2022-07-28T09:41:08.425Z,22.41
2022-07-28T09:42:08.407Z,22.39
2022-07-28T09:43:08.398Z,22.38
2022-07-28T09:44:08.375Z,22.36
2022-07-28T09:45:24.839Z,22.38
2022-07-28T09:46:09.592Z,22.38
2022-07-28T09:47:08.537Z,22.36
2022-07-28T09:48:08.505Z,22.30
2022-07-28T09:49:08.583Z,22.30
2022-07-28T09:50:08.488Z,22.23
2022-07-28T09:51:08.316Z,22.09
2022-07-28T09:52:08.265Z,22.04
2022-07-28T09:53:08.269Z,22.02
2022-07-28T09:54:08.257Z,22.06
2022-07-28T09:55:08.237Z,22.12
2022-07-28T09:56:08.386Z,22.20
2022-07-28T09:57:08.283Z,22.26
2022-07-28T09:58:08.182Z,22.24
2022-07-28T09:59:08.517Z,22.17
2022-07-28T10:00:08.153Z,22.21
2022-07-28T10:01:08.336Z,22.29
2022-07-28T10:02:08.244Z,22.35
2022-07-28T10:03:08.179Z,22.41
2022-07-28T10:04:08.103Z,22.44
2022-07-28T10:05:08.117Z,22.52
2022-07-28T10:06:08.132Z,22.54
2022-07-28T10:07:08.093Z,22.54
2022-07-28T10:08:08.063Z,22.48
2022-07-28T10:09:08.126Z,22.46
2022-07-28T10:10:08.038Z,22.48
2022-07-28T10:11:08.023Z,22.56
2022-07-28T10:12:08.035Z,22.54
2022-07-28T10:13:07.992Z,22.54
2022-07-28T10:14:07.984Z,22.54
2022-07-28T10:15:07.980Z,22.57
2022-07-28T10:16:07.998Z,22.57
2022-07-28T10:17:07.955Z,22.66
2022-07-28T10:18:07.932Z,22.75
2022-07-28T10:19:07.919Z,22.86
2022-07-28T10:20:07.907Z,22.93
2022-07-28T10:21:07.905Z,22.99
2022-07-28T10:22:07.893Z,23.00
2022-07-28T10:23:07.911Z,23.00
2022-07-28T10:24:07.853Z,23.00
2022-07-28T10:25:07.886Z,23.00
2022-07-28T10:26:12.928Z,23.00
2022-07-28T10:27:08.809Z,23.03
2022-07-28T10:28:07.795Z,22.97
2022-07-28T10:29:07.787Z,22.94
2022-07-28T10:30:07.802Z,22.94
2022-07-28T10:31:07.785Z,22.94
2022-07-28T10:32:07.759Z,22.88
2022-07-28T10:33:07.743Z,22.76
2022-07-28T10:34:07.738Z,22.72
2022-07-28T10:35:07.721Z,22.75
2022-07-28T10:36:07.711Z,22.79
2022-07-28T10:37:07.705Z,22.82
2022-07-28T10:38:07.682Z,22.76
2022-07-28T10:39:07.681Z,22.84
2022-07-28T10:40:10.292Z,22.91
2022-07-28T10:41:07.622Z,23.00
2022-07-28T10:42:07.632Z,23.14
2022-07-28T10:43:07.609Z,23.23
2022-07-28T10:44:07.593Z,23.32
2022-07-28T10:45:07.612Z,23.35
2022-07-28T10:46:10.769Z,23.38
2022-07-28T10:47:08.666Z,23.37
2022-07-28T10:48:07.949Z,23.35
2022-07-28T10:49:08.416Z,23.35
2022-07-28T10:50:07.529Z,23.39
2022-07-28T10:51:07.551Z,23.45
2022-07-28T10:52:15.444Z,23.47
2022-07-28T10:53:08.512Z,23.44
2022-07-28T10:54:07.483Z,23.35
2022-07-28T10:55:07.494Z,23.34
2022-07-28T10:56:07.472Z,23.31
2022-07-28T10:57:07.429Z,23.34
2022-07-28T10:58:11.381Z,23.38
2022-07-28T10:59:07.404Z,23.41
2022-07-28T11:00:24.500Z,23.47
2022-07-28T11:01:10.679Z,23.52
2022-07-28T11:02:08.548Z,23.56
2022-07-28T11:03:13.534Z,23.60
2022-07-28T11:04:08.352Z,23.63
2022-07-28T11:05:07.330Z,23.59
2022-07-28T11:06:07.321Z,23.52
2022-07-28T11:07:07.309Z,23.45
2022-07-28T11:08:07.278Z,23.35
2022-07-28T11:09:07.283Z,23.35
2022-07-28T11:10:07.259Z,23.42
2022-07-28T11:11:08.744Z,23.50
2022-07-28T11:12:09.921Z,23.52
2022-07-28T11:13:07.327Z,23.53
2022-07-28T11:14:08.224Z,23.53
2022-07-28T11:15:15.898Z,23.54
2022-07-28T11:16:08.201Z,23.59
2022-07-28T11:17:10.428Z,23.64
2022-07-28T11:18:07.150Z,23.75
2022-07-28T11:19:07.975Z,23.86
2022-07-28T11:20:24.884Z,23.90
2022-07-28T11:21:08.581Z,23.94
2022-07-28T11:22:07.123Z,23.99
2022-07-28T11:23:07.116Z,23.99
2022-07-28T11:24:07.076Z,23.94
2022-07-28T11:25:19.880Z,23.96
2022-07-28T11:26:08.068Z,23.97
2022-07-28T11:27:07.047Z,23.96
2022-07-28T11:28:07.059Z,23.96
2022-07-28T11:29:07.009Z,23.96
2022-07-28T11:30:07.013Z,23.96
2022-07-28T11:31:07.043Z,24.00
2022-07-28T11:32:06.993Z,23.99
2022-07-28T11:33:06.989Z,23.94
2022-07-28T11:34:06.947Z,23.92
2022-07-28T11:35:06.942Z,23.86
2022-07-28T11:36:06.919Z,23.84
2022-07-28T11:37:06.933Z,23.89
2022-07-28T11:38:06.907Z,23.90
2022-07-28T11:39:06.902Z,23.94
2022-07-28T11:40:06.876Z,24.00
2022-07-28T11:41:06.858Z,24.06
2022-07-28T11:42:06.849Z,24.11
2022-07-28T11:43:06.874Z,24.14
2022-07-28T11:44:06.891Z,24.15
2022-07-28T11:45:06.819Z,24.18
2022-07-28T11:46:09.667Z,24.19
2022-07-28T11:47:06.778Z,24.18
2022-07-28T11:48:06.806Z,24.15
2022-07-28T11:49:06.815Z,24.15
2022-07-28T11:50:07.747Z,24.15
2022-07-28T11:51:06.829Z,24.04
2022-07-28T11:52:06.710Z,23.90
2022-07-28T11:53:06.697Z,23.90
2022-07-28T11:54:06.715Z,23.93
2022-07-28T11:55:06.681Z,23.97
2022-07-28T11:56:06.707Z,24.02
2022-07-28T11:57:06.660Z,24.08
2022-07-28T11:58:06.626Z,24.14
2022-07-28T11:59:06.642Z,24.18
2022-07-28T12:00:06.649Z,24.26
2022-07-28T12:01:06.603Z,24.30
2022-07-28T12:02:07.622Z,24.34
2022-07-28T12:03:06.570Z,24.39
2022-07-28T12:04:06.582Z,24.41
2022-07-28T12:05:06.580Z,24.37
2022-07-28T12:06:06.541Z,24.33
2022-07-28T12:07:06.524Z,24.31
2022-07-28T12:08:06.532Z,24.37
2022-07-28T12:09:06.502Z,24.39
2022-07-28T12:10:06.469Z,24.45
2022-07-28T12:11:06.457Z,24.52
2022-07-28T12:12:06.454Z,24.60
2022-07-28T12:13:06.437Z,24.60
2022-07-28T12:14:06.461Z,24.59
2022-07-28T12:15:07.398Z,24.59
2022-07-28T12:16:06.387Z,24.56
2022-07-28T12:17:06.429Z,24.51
2022-07-28T12:18:06.366Z,24.45
2022-07-28T12:19:06.347Z,24.48
2022-07-28T12:20:06.347Z,24.49
2022-07-28T12:21:07.326Z,24.53
2022-07-28T12:22:06.324Z,24.55
2022-07-28T12:23:06.311Z,24.53
2022-07-28T12:24:06.277Z,24.52
2022-07-28T12:25:06.309Z,24.46
2022-07-28T12:26:07.289Z,24.42
2022-07-28T12:27:06.248Z,24.39
2022-07-28T12:28:06.248Z,24.39
2022-07-28T12:29:08.424Z,24.44
2022-07-28T12:30:07.223Z,24.41
2022-07-28T12:31:06.206Z,24.42
2022-07-28T12:32:06.425Z,24.44
2022-07-28T12:33:06.189Z,24.44
2022-07-28T12:34:06.156Z,24.42
2022-07-28T12:35:06.159Z,24.45
2022-07-28T12:36:06.175Z,24.48
2022-07-28T12:37:06.135Z,24.52
2022-07-28T12:38:06.127Z,24.64
2022-07-28T12:39:16.012Z,24.82
2022-07-28T12:40:06.062Z,24.97
2022-07-28T12:41:08.774Z,25.05
2022-07-28T12:42:07.744Z,25.11
2022-07-28T12:43:06.057Z,25.19
2022-07-28T12:44:06.139Z,25.19
2022-07-28T12:45:06.051Z,25.20
2022-07-28T12:46:06.824Z,25.16
2022-07-28T12:47:06.004Z,25.11
2022-07-28T12:48:05.971Z,25.08
2022-07-28T12:49:06.064Z,25.05
2022-07-28T12:50:07.192Z,25.07
2022-07-28T12:51:05.935Z,25.11
2022-07-28T12:52:05.975Z,25.01
2022-07-28T12:53:05.925Z,24.84